createdAt,value
2018-12-10T00:00:19.159Z,74.65
2018-12-10T00:00:59.856Z,74.27
2018-12-10T00:01:40.703Z,74.65
2018-12-10T00:02:21.500Z,74.46
2018-12-10T00:03:02.236Z,74.85
2018-12-10T00:03:42.939Z,74.75
2018-12-10T00:04:23.689Z,74.55
2018-12-10T00:05:04.503Z,74.55
2018-12-10T00:05:45.234Z,74.55
2018-12-10T00:06:25.927Z,74.55
2018-12-10T00:07:06.750Z,74.65
2018-12-10T00:07:47.543Z,74.65
2018-12-10T00:08:28.368Z,74.46
2018-12-10T00:09:09.157Z,74.75
2018-12-10T00:09:49.941Z,74.27
2018-12-10T00:10:30.760Z,74.46
2018-12-10T00:11:11.485Z,75.52
2018-12-10T00:11:52.215Z,75.13
2018-12-10T00:12:32.910Z,75.04
2018-12-10T00:13:13.696Z,74.94
2018-12-10T00:13:54.530Z,75.32
2018-12-10T00:14:35.274Z,75.13
2018-12-10T00:15:16.124Z,74.65
2018-12-10T00:15:56.841Z,75.42
2018-12-10T00:16:37.556Z,74.65
2018-12-10T00:17:18.279Z,75.42
2018-12-10T00:17:59.159Z,75.52
2018-12-10T00:18:39.883Z,75.52
2018-12-10T00:19:20.582Z,75.52
2018-12-10T00:20:01.369Z,75.42
2018-12-10T00:20:42.186Z,74.85
2018-12-10T00:21:23.051Z,75.04
2018-12-10T00:22:03.809Z,74.65
2018-12-10T00:22:44.498Z,74.85
2018-12-10T00:23:25.195Z,75.42
2018-12-10T00:24:05.936Z,75.23
2018-12-10T00:24:46.802Z,74.46
2018-12-10T00:25:27.566Z,74.55
2018-12-10T00:26:08.386Z,74.55
2018-12-10T00:26:49.100Z,75.42
2018-12-10T00:27:29.908Z,75.52
2018-12-10T00:28:10.677Z,75.52
2018-12-10T00:28:51.352Z,75.13
2018-12-10T00:29:32.066Z,75.52
2018-12-10T00:30:12.757Z,75.42
2018-12-10T00:30:53.540Z,75.13
2018-12-10T00:31:34.404Z,74.65
2018-12-10T00:32:15.255Z,75.04
2018-12-10T00:32:56.009Z,75.42
2018-12-10T00:33:36.831Z,75.62
2018-12-10T00:34:17.765Z,75.42
2018-12-10T00:34:58.548Z,75.52
2018-12-10T00:35:39.403Z,75.42
2018-12-10T00:36:20.132Z,74.85
2018-12-10T00:37:00.924Z,74.85
2018-12-10T00:37:41.841Z,75.32
2018-12-10T00:38:22.746Z,75.13
2018-12-10T00:39:03.596Z,75.42
2018-12-10T00:39:44.331Z,74.65
2018-12-10T00:40:25.082Z,75.13
2018-12-10T00:41:05.889Z,74.55
2018-12-10T00:41:46.610Z,74.75
2018-12-10T00:42:27.385Z,74.55
2018-12-10T00:43:08.105Z,75.52
2018-12-10T00:43:48.846Z,75.62
2018-12-10T00:44:29.630Z,74.55
2018-12-10T00:45:10.347Z,74.65
2018-12-10T00:45:51.087Z,75.52
2018-12-10T00:46:31.880Z,74.85
2018-12-10T00:47:12.660Z,75.42
2018-12-10T00:47:53.450Z,74.85
2018-12-10T00:48:34.173Z,74.85
2018-12-10T00:49:14.873Z,74.85
2018-12-10T00:49:55.631Z,75.23
2018-12-10T00:50:36.427Z,74.37
2018-12-10T00:51:17.190Z,74.55
2018-12-10T00:51:58.028Z,75.42
2018-12-10T00:52:38.779Z,74.55
2018-12-10T00:53:19.526Z,75.52
2018-12-10T00:54:00.310Z,75.52
2018-12-10T00:54:41.049Z,75.52
2018-12-10T00:55:21.758Z,75.23
2018-12-10T00:56:02.454Z,74.85
2018-12-10T00:56:43.194Z,75.42
2018-12-10T00:57:23.990Z,75.42
2018-12-10T00:58:04.750Z,74.85
2018-12-10T00:58:45.528Z,75.23
2018-12-10T00:59:26.344Z,74.75
2018-12-10T01:00:07.165Z,75.04
2018-12-10T01:00:48.001Z,75.13
2018-12-10T01:01:28.689Z,74.94
2018-12-10T01:02:09.448Z,75.42
2018-12-10T01:02:50.238Z,75.32
2018-12-10T01:03:30.974Z,75.42
2018-12-10T01:04:11.736Z,74.85
2018-12-10T01:04:52.430Z,75.32
2018-12-10T01:05:33.202Z,75.23
2018-12-10T01:06:14.069Z,75.52
2018-12-10T01:06:54.836Z,75.23
2018-12-10T01:07:35.630Z,75.04
2018-12-10T01:08:16.349Z,75.04
2018-12-10T01:08:57.087Z,75.04
2018-12-10T01:09:37.823Z,75.42
2018-12-10T01:10:18.616Z,75.23
2018-12-10T01:10:59.392Z,75.32
2018-12-10T01:11:40.114Z,74.75
2018-12-10T01:12:20.904Z,75.13
2018-12-10T01:13:01.731Z,75.13
2018-12-10T01:13:42.547Z,75.04
2018-12-10T01:14:23.254Z,74.75
2018-12-10T01:15:03.981Z,74.94
2018-12-10T01:15:44.742Z,75.42
2018-12-10T01:16:25.566Z,75.42
2018-12-10T01:17:06.333Z,74.85
2018-12-10T01:17:47.055Z,74.75
2018-12-10T01:18:27.784Z,74.85
2018-12-10T01:19:08.561Z,74.85
2018-12-10T01:19:49.299Z,75.04
2018-12-10T01:20:30.076Z,75.42
2018-12-10T01:21:10.867Z,75.04
2018-12-10T01:21:51.740Z,74.85
2018-12-10T01:22:32.597Z,74.85
2018-12-10T01:23:13.296Z,75.04
2018-12-10T01:23:54.009Z,75.23
2018-12-10T01:24:34.726Z,74.85
2018-12-10T01:25:15.568Z,74.85
2018-12-10T01:25:56.422Z,75.13
2018-12-10T01:26:37.153Z,75.42
2018-12-10T01:27:17.909Z,75.32
2018-12-10T01:27:58.605Z,75.23
2018-12-10T01:28:39.421Z,75.23
2018-12-10T01:29:20.254Z,74.65
2018-12-10T01:30:00.945Z,75.23
2018-12-10T01:30:41.778Z,75.04
2018-12-10T01:31:22.556Z,75.13
2018-12-10T01:32:03.325Z,74.94
2018-12-10T01:32:44.114Z,74.75
2018-12-10T01:33:24.945Z,75.04
2018-12-10T01:34:05.645Z,74.85
2018-12-10T01:34:46.374Z,74.75
2018-12-10T01:35:27.101Z,74.85
2018-12-10T01:36:07.854Z,74.85
2018-12-10T01:36:48.689Z,74.94
2018-12-10T01:37:29.399Z,74.85
2018-12-10T01:38:10.219Z,74.85
2018-12-10T01:38:51.006Z,75.04
2018-12-10T01:39:31.796Z,75.23
2018-12-10T01:40:12.572Z,75.42
2018-12-10T01:40:53.300Z,75.46
2018-12-10T01:41:34.079Z,75.42
2018-12-10T01:42:14.847Z,75.42
2018-12-10T01:42:55.636Z,75.23
2018-12-10T01:43:36.458Z,75.42
2018-12-10T01:44:17.284Z,75.42
2018-12-10T01:44:58.022Z,75.32
2018-12-10T01:45:38.756Z,75.07
2018-12-10T01:46:19.591Z,74.88
2018-12-10T01:47:00.317Z,74.85
2018-12-10T01:47:41.049Z,75.04
2018-12-10T01:48:21.821Z,75.56
2018-12-10T01:49:02.595Z,75.65
2018-12-10T01:49:43.419Z,75.23
2018-12-10T01:50:24.163Z,75.07
2018-12-10T01:51:04.931Z,75.27
2018-12-10T01:51:45.750Z,75.04
2018-12-10T01:52:26.554Z,75.32
2018-12-10T01:53:07.371Z,74.69
2018-12-10T01:53:48.092Z,75.13
2018-12-10T01:54:28.853Z,75.42
2018-12-10T01:55:09.670Z,75.04
2018-12-10T01:55:50.377Z,75.23
2018-12-10T01:56:31.078Z,75.32
2018-12-10T01:57:11.842Z,75.52
2018-12-10T01:57:52.627Z,75.46
2018-12-10T01:58:33.465Z,75.32
2018-12-10T01:59:14.242Z,75.32
2018-12-10T01:59:55.007Z,74.94
2018-12-10T02:00:35.691Z,75.04
2018-12-10T02:01:16.433Z,75.42
2018-12-10T02:01:57.160Z,74.85
2018-12-10T02:02:37.975Z,75.04
2018-12-10T02:03:18.719Z,75.13
2018-12-10T02:03:59.425Z,75.52
2018-12-10T02:04:40.197Z,74.27
2018-12-10T02:05:20.969Z,74.55
2018-12-10T02:06:01.761Z,74.55
2018-12-10T02:06:42.455Z,74.55
2018-12-10T02:07:23.174Z,74.17
2018-12-10T02:08:03.857Z,74.55
2018-12-10T02:08:44.646Z,74.65
2018-12-10T02:09:25.382Z,74.75
2018-12-10T02:10:06.174Z,74.85
2018-12-10T02:10:46.915Z,74.55
2018-12-10T02:11:27.630Z,74.69
2018-12-10T02:12:08.405Z,74.65
2018-12-10T02:12:49.185Z,74.6
2018-12-10T02:13:29.921Z,74.75
2018-12-10T02:14:10.658Z,74.55
2018-12-10T02:14:51.393Z,74.37
2018-12-10T02:15:32.182Z,74.46
2018-12-10T02:16:12.971Z,74.65
2018-12-10T02:16:53.719Z,74.69
2018-12-10T02:17:34.461Z,74.75
2018-12-10T02:18:15.184Z,74.55
2018-12-10T02:18:55.896Z,74.17
2018-12-10T02:19:36.703Z,74.5
2018-12-10T02:20:17.421Z,74.55
2018-12-10T02:20:58.123Z,74.46
2018-12-10T02:21:38.875Z,74.46
2018-12-10T02:22:19.635Z,74.37
2018-12-10T02:23:00.465Z,74.46
2018-12-10T02:23:41.176Z,74.37
2018-12-10T02:24:21.872Z,74.37
2018-12-10T02:25:02.761Z,74.4
2018-12-10T02:25:43.548Z,74.46
2018-12-10T02:26:24.274Z,74.55
2018-12-10T02:27:05.004Z,74.55
2018-12-10T02:27:45.709Z,74.27
2018-12-10T02:28:26.521Z,74.46
2018-12-10T02:29:07.247Z,74.46
2018-12-10T02:29:47.976Z,74.85
2018-12-10T02:30:28.772Z,74.5
2018-12-10T02:31:09.529Z,74.65
2018-12-10T02:31:50.339Z,74.75
2018-12-10T02:32:31.048Z,74.37
2018-12-10T02:33:11.732Z,74.55
2018-12-10T02:33:52.418Z,74.27
2018-12-10T02:34:33.174Z,74.46
2018-12-10T02:35:14.009Z,74.55
2018-12-10T02:35:54.866Z,74.46
2018-12-10T02:36:35.617Z,74.55
2018-12-10T02:37:16.353Z,74.5
2018-12-10T02:37:57.122Z,74.55
2018-12-10T02:38:37.925Z,74.65
2018-12-10T02:39:18.685Z,74.65
2018-12-10T02:39:59.414Z,74.65
2018-12-10T02:40:40.134Z,74.27
2018-12-10T02:41:20.913Z,74.27
2018-12-10T02:42:01.682Z,74.27
2018-12-10T02:42:42.486Z,74.65
2018-12-10T02:43:23.225Z,74.65
2018-12-10T02:44:03.979Z,74.65
2018-12-10T02:44:44.715Z,74.46
2018-12-10T02:45:25.429Z,74.4
2018-12-10T02:46:06.216Z,74.27
2018-12-10T02:46:46.948Z,74.46
2018-12-10T02:47:27.698Z,74.65
2018-12-10T02:48:08.484Z,74.27
2018-12-10T02:48:49.285Z,74.46
2018-12-10T02:49:30.073Z,74.37
2018-12-10T02:50:10.819Z,74.55
2018-12-10T02:50:51.565Z,74.75
2018-12-10T02:51:32.310Z,74.46
2018-12-10T02:52:13.132Z,74.27
2018-12-10T02:52:53.887Z,74.46
2018-12-10T02:53:34.727Z,74.27
2018-12-10T02:54:15.467Z,74.27
2018-12-10T02:54:56.165Z,74.37
2018-12-10T02:55:37.033Z,74.46
2018-12-10T02:56:17.759Z,74.17
2018-12-10T02:56:58.564Z,74.17
2018-12-10T02:57:39.281Z,74.27
2018-12-10T02:58:20.040Z,74.17
2018-12-10T02:59:00.852Z,74.08
2018-12-10T02:59:41.585Z,74.27
2018-12-10T03:00:22.332Z,74.17
2018-12-10T03:01:03.151Z,74.3
2018-12-10T03:01:43.908Z,74.17
2018-12-10T03:02:24.722Z,74.17
2018-12-10T03:03:05.479Z,74.37
2018-12-10T03:03:46.262Z,74.17
2018-12-10T03:04:27.077Z,74.08
2018-12-10T03:05:07.815Z,74.21
2018-12-10T03:05:48.531Z,74.55
2018-12-10T03:06:29.237Z,74.08
2018-12-10T03:07:09.955Z,74.37
2018-12-10T03:07:50.780Z,74.17
2018-12-10T03:08:31.597Z,74.17
2018-12-10T03:09:12.415Z,74.27
2018-12-10T03:09:53.135Z,74.21
2018-12-10T03:10:33.906Z,74.27
2018-12-10T03:11:14.778Z,74.08
2018-12-10T03:11:55.607Z,74.37
2018-12-10T03:12:36.407Z,74.46
2018-12-10T03:13:17.087Z,74.17
2018-12-10T03:13:57.955Z,74.37
2018-12-10T03:14:38.725Z,74.17
2018-12-10T03:15:19.551Z,74.55
2018-12-10T03:16:00.332Z,74.17
2018-12-10T03:16:41.081Z,74.27
2018-12-10T03:17:21.880Z,74.27
2018-12-10T03:18:02.674Z,74.37
2018-12-10T03:18:43.444Z,74.27
2018-12-10T03:19:24.256Z,74.17
2018-12-10T03:20:05.030Z,74.27
2018-12-10T03:20:45.836Z,74.08
2018-12-10T03:21:26.601Z,74.46
2018-12-10T03:22:07.356Z,74.17
2018-12-10T03:22:48.268Z,74.27
2018-12-10T03:23:29.078Z,74.27
2018-12-10T03:24:09.879Z,74.17
2018-12-10T03:24:50.638Z,74.5
2018-12-10T03:25:31.413Z,74.17
2018-12-10T03:26:12.163Z,74.3
2018-12-10T03:26:52.976Z,74.27
2018-12-10T03:27:33.774Z,74.17
2018-12-10T03:28:14.575Z,74.27
2018-12-10T03:28:55.399Z,74.37
2018-12-10T03:29:36.182Z,74.37
2018-12-10T03:30:17.029Z,74.5
2018-12-10T03:30:57.794Z,74.46
2018-12-10T03:31:38.591Z,74.46
2018-12-10T03:32:19.340Z,74.65
2018-12-10T03:33:00.110Z,74.69
2018-12-10T03:33:40.945Z,74.27
2018-12-10T03:34:21.665Z,74.3
2018-12-10T03:35:02.367Z,74.08
2018-12-10T03:35:43.192Z,74.3
2018-12-10T03:36:23.996Z,74.08
2018-12-10T03:37:04.772Z,74.37
2018-12-10T03:37:45.556Z,74.17
2018-12-10T03:38:26.353Z,74.08
2018-12-10T03:39:07.134Z,74.37
2018-12-10T03:39:47.904Z,74.3
2018-12-10T03:40:28.617Z,74.17
2018-12-10T03:41:09.309Z,74.37
2018-12-10T03:41:50.062Z,74.55
2018-12-10T03:42:30.832Z,74.21
2018-12-10T03:43:11.646Z,74.17
2018-12-10T03:43:52.438Z,74.5
2018-12-10T03:44:33.178Z,74.08
2018-12-10T03:45:13.944Z,73.79
2018-12-10T03:45:54.693Z,74.5
2018-12-10T03:46:35.500Z,74.37
2018-12-10T03:47:16.279Z,74.46
2018-12-10T03:47:56.986Z,74.46
2018-12-10T03:48:37.790Z,74.55
2018-12-10T03:49:18.578Z,74.3
2018-12-10T03:49:59.366Z,74.37
2018-12-10T03:50:40.092Z,74.27
2018-12-10T03:51:20.856Z,74.17
2018-12-10T03:52:01.620Z,74.08
2018-12-10T03:52:42.412Z,74.27
2018-12-10T03:53:23.249Z,74.27
2018-12-10T03:54:04.070Z,74.46
2018-12-10T03:54:44.873Z,74.17
2018-12-10T03:55:25.670Z,74.3
2018-12-10T03:56:06.594Z,74.79
2018-12-10T03:56:47.414Z,74.3
2018-12-10T03:57:28.159Z,74.37
2018-12-10T03:58:08.863Z,74.27
2018-12-10T03:58:49.589Z,74.27
2018-12-10T03:59:30.477Z,74.46
2018-12-10T04:00:11.169Z,74.27
2018-12-10T04:00:51.996Z,74.21
2018-12-10T04:01:32.784Z,74.21
2018-12-10T04:02:13.537Z,74.3
2018-12-10T04:02:54.306Z,74.17
2018-12-10T04:03:35.034Z,74.17
2018-12-10T04:04:15.813Z,74.21
2018-12-10T04:04:56.606Z,74.6
2018-12-10T04:05:37.338Z,74.08
2018-12-10T04:06:18.154Z,74.27
2018-12-10T04:06:59.027Z,74.27
2018-12-10T04:07:39.802Z,74.08
2018-12-10T04:08:20.556Z,74.17
2018-12-10T04:09:01.324Z,74.21
2018-12-10T04:09:42.116Z,74.27
2018-12-10T04:10:22.849Z,74.27
2018-12-10T04:11:03.543Z,74.4
2018-12-10T04:11:44.313Z,74.21
2018-12-10T04:12:25.082Z,74.21
2018-12-10T04:13:05.877Z,74.27
2018-12-10T04:13:46.611Z,74.27
2018-12-10T04:14:27.413Z,74.6
2018-12-10T04:15:08.200Z,74.65
2018-12-10T04:15:48.988Z,74.46
2018-12-10T04:16:29.789Z,74.17
2018-12-10T04:17:10.492Z,74.17
2018-12-10T04:17:51.237Z,74.3
2018-12-10T04:18:32.035Z,74.17
2018-12-10T04:19:12.910Z,74.27
2018-12-10T04:19:53.713Z,74.55
2018-12-10T04:20:34.511Z,74.11
2018-12-10T04:21:15.232Z,74.3
2018-12-10T04:21:55.922Z,74.27
2018-12-10T04:22:36.747Z,74.21
2018-12-10T04:23:17.480Z,74.5
2018-12-10T04:23:58.197Z,74.4
2018-12-10T04:24:38.915Z,74.46
2018-12-10T04:25:19.653Z,74.5
2018-12-10T04:26:00.453Z,74.08
2018-12-10T04:26:41.248Z,74.46
2018-12-10T04:27:22.107Z,74.21
2018-12-10T04:28:02.782Z,74.27
2018-12-10T04:28:43.488Z,74.55
2018-12-10T04:29:24.278Z,74.08
2018-12-10T04:30:05.000Z,74.11
2018-12-10T04:30:45.802Z,74.27
2018-12-10T04:31:26.534Z,74.17
2018-12-10T04:32:07.270Z,74.46
2018-12-10T04:32:48.096Z,74.46
2018-12-10T04:33:28.917Z,74.4
2018-12-10T04:34:09.631Z,74.08
2018-12-10T04:34:50.314Z,74.11
2018-12-10T04:35:31.044Z,74.17
2018-12-10T04:36:11.826Z,74.27
2018-12-10T04:36:52.619Z,74.27
2018-12-10T04:37:33.426Z,74.17
2018-12-10T04:38:14.250Z,74.65
2018-12-10T04:38:54.965Z,74.17
2018-12-10T04:39:35.705Z,74.55
2018-12-10T04:40:16.518Z,74.65
2018-12-10T04:40:57.245Z,74.46
2018-12-10T04:41:37.999Z,74.46
2018-12-10T04:42:18.732Z,74.27
2018-12-10T04:42:59.490Z,74.17
2018-12-10T04:43:40.305Z,74.08
2018-12-10T04:44:21.089Z,74.11
2018-12-10T04:45:01.815Z,74.27
2018-12-10T04:45:42.647Z,74.27
2018-12-10T04:46:23.532Z,74.17
2018-12-10T04:47:04.347Z,74.37
2018-12-10T04:47:45.084Z,74.11
2018-12-10T04:48:25.840Z,74.21
2018-12-10T04:49:06.710Z,74.27
2018-12-10T04:49:47.393Z,74.27
2018-12-10T04:50:28.098Z,74.3
2018-12-10T04:51:08.825Z,74.21
2018-12-10T04:51:49.581Z,74.37
2018-12-10T04:52:30.473Z,74.3
2018-12-10T04:53:11.179Z,74.27
2018-12-10T04:53:51.938Z,74.17
2018-12-10T04:54:32.667Z,74.17
2018-12-10T04:55:13.365Z,74.11
2018-12-10T04:55:54.116Z,74.11
2018-12-10T04:56:34.930Z,74.5
2018-12-10T04:57:15.713Z,74.65
2018-12-10T04:57:56.428Z,74.27
2018-12-10T04:58:37.205Z,74.08
2018-12-10T04:59:18.062Z,74.11
2018-12-10T04:59:58.906Z,74.17
2018-12-10T05:00:39.601Z,74.27
2018-12-10T05:01:20.582Z,74.27
2018-12-10T05:02:01.372Z,74.21
2018-12-10T05:02:42.135Z,74.27
2018-12-10T05:03:22.995Z,74.5
2018-12-10T05:04:03.850Z,74.08
2018-12-10T05:04:44.620Z,74.3
2018-12-10T05:05:25.316Z,74.27
2018-12-10T05:06:06.139Z,74.27
2018-12-10T05:06:46.894Z,74.27
2018-12-10T05:07:27.630Z,74.46
2018-12-10T05:08:08.329Z,74.5
2018-12-10T05:08:49.116Z,74.55
2018-12-10T05:09:29.911Z,74.37
2018-12-10T05:10:10.737Z,74.65
2018-12-10T05:10:51.601Z,74.55
2018-12-10T05:11:32.367Z,74.55
2018-12-10T05:12:13.124Z,74.46
2018-12-10T05:12:53.900Z,74.37
2018-12-10T05:13:34.727Z,74.17
2018-12-10T05:14:15.524Z,74.17
2018-12-10T05:14:56.281Z,74.27
2018-12-10T05:15:37.073Z,74.21
2018-12-10T05:16:17.897Z,74.3
2018-12-10T05:16:58.737Z,74.17
2018-12-10T05:17:39.522Z,74.46
2018-12-10T05:18:20.229Z,74.5
2018-12-10T05:19:00.991Z,74.17
2018-12-10T05:19:41.791Z,74.08
2018-12-10T05:20:22.529Z,74.02
2018-12-10T05:21:03.254Z,74.27
2018-12-10T05:21:43.948Z,74.46
2018-12-10T05:22:24.717Z,74.08
2018-12-10T05:23:05.453Z,74.55
2018-12-10T05:23:46.179Z,74.08
2018-12-10T05:24:27.023Z,74.27
2018-12-10T05:25:07.854Z,74.17
2018-12-10T05:25:48.673Z,74.17
2018-12-10T05:26:29.414Z,74.17
2018-12-10T05:27:10.181Z,74.27
2018-12-10T05:27:50.886Z,74.08
2018-12-10T05:28:31.615Z,74.11
2018-12-10T05:29:12.394Z,74.3
2018-12-10T05:29:53.158Z,74.55
2018-12-10T05:30:33.943Z,74.17
2018-12-10T05:31:14.713Z,74.27
2018-12-10T05:31:55.492Z,74.5
2018-12-10T05:32:36.357Z,74.27
2018-12-10T05:33:17.072Z,74.3
2018-12-10T05:33:57.811Z,74.17
2018-12-10T05:34:38.554Z,74.11
2018-12-10T05:35:19.314Z,74.37
2018-12-10T05:36:00.109Z,74.27
2018-12-10T05:36:40.804Z,74.08
2018-12-10T05:37:21.614Z,74.17
2018-12-10T05:38:02.760Z,74.37
2018-12-10T05:38:43.728Z,74.17
2018-12-10T05:39:24.732Z,74.17
2018-12-10T05:40:05.501Z,74.69
2018-12-10T05:40:46.274Z,75.56
2018-12-10T05:41:27.084Z,74.5
2018-12-10T05:42:07.776Z,74.4
2018-12-10T05:42:48.518Z,74.5
2018-12-10T05:43:29.225Z,74.21
2018-12-10T05:44:10.046Z,74.27
2018-12-10T05:44:50.816Z,74.21
2018-12-10T05:45:31.636Z,74.6
2018-12-10T05:46:12.374Z,73.98
2018-12-10T05:46:53.121Z,74.21
2018-12-10T05:47:33.854Z,74.27
2018-12-10T05:48:14.581Z,74.46
2018-12-10T05:48:55.409Z,74.17
2018-12-10T05:49:36.129Z,73.44
2018-12-10T05:50:16.917Z,73.41
2018-12-10T05:50:57.749Z,73.6
2018-12-10T05:51:38.503Z,73.31
2018-12-10T05:52:19.308Z,73.06
2018-12-10T05:53:00.030Z,72.58
2018-12-10T05:53:40.791Z,73.11
2018-12-10T05:54:21.585Z,72.92
2018-12-10T05:55:02.316Z,72.73
2018-12-10T05:55:43.128Z,72.92
2018-12-10T05:56:23.840Z,72.54
2018-12-10T05:57:04.607Z,72.34
2018-12-10T05:57:45.372Z,72.73
2018-12-10T05:58:26.138Z,72.25
2018-12-10T05:59:06.926Z,72.19
2018-12-10T05:59:47.769Z,72.67
2018-12-10T06:00:28.535Z,72.58
2018-12-10T06:01:09.280Z,72.86
2018-12-10T06:01:49.989Z,73.15
2018-12-10T06:02:30.719Z,73.5
2018-12-10T06:03:11.489Z,72.96
2018-12-10T06:03:52.360Z,72.77
2018-12-10T06:04:33.119Z,72.48
2018-12-10T06:05:14.122Z,72.64
2018-12-10T06:05:54.848Z,72.54
2018-12-10T06:06:35.595Z,72.25
2018-12-10T06:07:16.443Z,72.34
2018-12-10T06:07:57.202Z,72.34
2018-12-10T06:08:37.924Z,72.92
2018-12-10T06:09:18.677Z,72.54
2018-12-10T06:09:59.440Z,72.77
2018-12-10T06:10:40.324Z,72.34
2018-12-10T06:11:21.086Z,72.73
2018-12-10T06:12:01.869Z,72.44
2018-12-10T06:12:42.563Z,72.64
2018-12-10T06:13:23.293Z,72.44
2018-12-10T06:14:04.080Z,72.34
2018-12-10T06:14:44.949Z,72.44
2018-12-10T06:15:25.726Z,72.44
2018-12-10T06:16:06.481Z,72.92
2018-12-10T06:16:47.275Z,72.44
2018-12-10T06:17:28.078Z,72.06
2018-12-10T06:18:08.902Z,72.16
2018-12-10T06:18:49.621Z,72.44
2018-12-10T06:19:30.352Z,72.16
2018-12-10T06:20:11.089Z,71.96
2018-12-10T06:20:51.831Z,71.67
2018-12-10T06:21:32.621Z,71.77
2018-12-10T06:22:13.469Z,71.39
2018-12-10T06:22:54.225Z,71.39
2018-12-10T06:23:34.956Z,71.58
2018-12-10T06:24:15.729Z,71.48
2018-12-10T06:24:56.546Z,71.87
2018-12-10T06:25:37.279Z,71.39
2018-12-10T06:26:17.955Z,71.29
2018-12-10T06:26:58.687Z,71.48
2018-12-10T06:27:39.524Z,71.48
2018-12-10T06:28:20.309Z,70.94
2018-12-10T06:29:01.073Z,71.39
2018-12-10T06:29:42.000Z,71
2018-12-10T06:30:22.797Z,71.1
2018-12-10T06:31:03.598Z,71.29
2018-12-10T06:31:44.353Z,70.81
2018-12-10T06:32:25.058Z,71.1
2018-12-10T06:33:05.844Z,71.29
2018-12-10T06:33:46.600Z,71.1
2018-12-10T06:34:27.334Z,71.1
2018-12-10T06:35:08.090Z,71.67
2018-12-10T06:35:48.864Z,71.48
2018-12-10T06:36:29.762Z,71.67
2018-12-10T06:37:10.537Z,71.67
2018-12-10T06:37:51.309Z,71.1
2018-12-10T06:38:32.049Z,71.29
2018-12-10T06:39:12.794Z,70.33
2018-12-10T06:39:53.523Z,70.43
2018-12-10T06:40:34.239Z,70.52
2018-12-10T06:41:15.032Z,70.62
2018-12-10T06:41:55.728Z,70.52
2018-12-10T06:42:36.508Z,70.43
2018-12-10T06:43:17.285Z,70.52
2018-12-10T06:43:58.075Z,70.9
2018-12-10T06:44:38.825Z,71.29
2018-12-10T06:45:19.569Z,70.33
2018-12-10T06:46:00.401Z,71.1
2018-12-10T06:46:41.131Z,70.72
2018-12-10T06:47:21.844Z,71.1
2018-12-10T06:48:02.588Z,70.62
2018-12-10T06:48:43.341Z,70.43
2018-12-10T06:49:24.129Z,70.62
2018-12-10T06:50:04.927Z,70.62
2018-12-10T06:50:45.636Z,70.62
2018-12-10T06:51:26.422Z,70.52
2018-12-10T06:52:07.155Z,70.81
2018-12-10T06:52:47.944Z,69.85
2018-12-10T06:53:28.697Z,70.14
2018-12-10T06:54:09.431Z,70.14
2018-12-10T06:54:50.279Z,69.85
2018-12-10T06:55:30.994Z,70.14
2018-12-10T06:56:11.855Z,69.75
2018-12-10T06:56:52.660Z,69.75
2018-12-10T06:57:33.433Z,69.85
2018-12-10T06:58:14.151Z,70.14
2018-12-10T06:58:54.920Z,69.85
2018-12-10T06:59:35.759Z,69.95
2018-12-10T07:00:16.578Z,69.95
2018-12-10T07:00:57.301Z,70.23
2018-12-10T07:01:38.016Z,70.14
2018-12-10T07:02:18.878Z,70.04
2018-12-10T07:02:59.691Z,69.79
2018-12-10T07:03:40.425Z,69.75
2018-12-10T07:04:21.232Z,69.66
2018-12-10T07:05:01.994Z,69.95
2018-12-10T07:05:42.845Z,69.95
2018-12-10T07:06:23.686Z,69.75
2018-12-10T07:07:04.524Z,70.14
2018-12-10T07:07:45.474Z,69.75
2018-12-10T07:08:26.368Z,70.14
2018-12-10T07:09:07.072Z,70.04
2018-12-10T07:09:47.774Z,70.04
2018-12-10T07:10:28.619Z,70.14
2018-12-10T07:11:09.441Z,69.85
2018-12-10T07:11:50.211Z,69.95
2018-12-10T07:12:30.995Z,69.95
2018-12-10T07:13:11.704Z,69.56
2018-12-10T07:13:52.432Z,69.18
2018-12-10T07:14:33.145Z,69.18
2018-12-10T07:15:13.958Z,69.08
2018-12-10T07:15:54.725Z,69.18
2018-12-10T07:16:35.399Z,69.66
2018-12-10T07:17:16.149Z,69.75
2018-12-10T07:17:56.941Z,69.75
2018-12-10T07:18:37.790Z,69.56
2018-12-10T07:19:18.553Z,69.95
2018-12-10T07:19:59.270Z,69.18
2018-12-10T07:20:40.017Z,69.18
2018-12-10T07:21:20.773Z,69.27
2018-12-10T07:22:01.557Z,69.18
2018-12-10T07:22:42.329Z,69.75
2018-12-10T07:23:23.136Z,69.56
2018-12-10T07:24:03.875Z,69.27
2018-12-10T07:24:44.651Z,69.66
2018-12-10T07:25:25.409Z,69.08
2018-12-10T07:26:06.182Z,68.98
2018-12-10T07:26:46.886Z,69.56
2018-12-10T07:27:27.600Z,70.23
2018-12-10T07:28:08.331Z,69.85
2018-12-10T07:28:49.202Z,69.66
2018-12-10T07:29:30.006Z,69.95
2018-12-10T07:30:10.842Z,70.04
2018-12-10T07:30:51.593Z,69.85
2018-12-10T07:31:32.354Z,69.75
2018-12-10T07:32:13.120Z,69.75
2018-12-10T07:32:53.911Z,68.98
2018-12-10T07:33:34.690Z,69.85
2018-12-10T07:34:15.384Z,68.89
2018-12-10T07:34:56.226Z,69.46
2018-12-10T07:35:37.044Z,69.27
2018-12-10T07:36:17.806Z,69.08
2018-12-10T07:36:58.515Z,69.08
2018-12-10T07:37:39.222Z,69.08
2018-12-10T07:38:19.993Z,69.08
2018-12-10T07:39:00.739Z,68.89
2018-12-10T07:39:41.438Z,69.27
2018-12-10T07:40:22.116Z,69.08
2018-12-10T07:41:02.876Z,69.18
2018-12-10T07:41:43.691Z,68.7
2018-12-10T07:42:24.429Z,69.37
2018-12-10T07:43:05.140Z,69.08
2018-12-10T07:43:45.927Z,69.37
2018-12-10T07:44:26.696Z,69.08
2018-12-10T07:45:07.561Z,68.89
2018-12-10T07:45:48.309Z,69.08
2018-12-10T07:46:29.051Z,68.89
2018-12-10T07:47:09.812Z,69.27
2018-12-10T07:47:50.614Z,69.18
2018-12-10T07:48:31.490Z,68.98
2018-12-10T07:49:12.346Z,69.18
2018-12-10T07:49:53.071Z,69.37
2018-12-10T07:50:33.811Z,68.7
2018-12-10T07:51:14.604Z,68.7
2018-12-10T07:51:55.352Z,68.7
2018-12-10T07:52:36.037Z,69.18
2018-12-10T07:53:16.771Z,69.08
2018-12-10T07:53:57.471Z,68.51
2018-12-10T07:54:38.285Z,68.7
2018-12-10T07:55:19.008Z,68.89
2018-12-10T07:55:59.747Z,69.08
2018-12-10T07:56:40.595Z,69.37
2018-12-10T07:57:21.368Z,68.51
2018-12-10T07:58:02.173Z,68.7
2018-12-10T07:58:42.920Z,68.6
2018-12-10T07:59:23.677Z,68.41
2018-12-10T08:00:04.486Z,68.41
2018-12-10T08:00:45.272Z,68.6
2018-12-10T08:01:25.984Z,68.79
2018-12-10T08:02:06.727Z,69.27
2018-12-10T08:02:47.480Z,68.31
2018-12-10T08:03:28.278Z,68.98
2018-12-10T08:04:09.071Z,69.08
2018-12-10T08:04:49.864Z,69.08
2018-12-10T08:05:30.588Z,69.31
2018-12-10T08:06:11.326Z,68.89
2018-12-10T08:06:52.070Z,68.79
2018-12-10T08:07:32.849Z,68.79
2018-12-10T08:08:13.734Z,68.98
2018-12-10T08:08:54.481Z,68.41
2018-12-10T08:09:35.294Z,68.73
2018-12-10T08:10:16.057Z,68.7
2018-12-10T08:10:56.840Z,69.31
2018-12-10T08:11:37.568Z,68.79
2018-12-10T08:12:18.323Z,68.41
2018-12-10T08:12:59.130Z,68.51
2018-12-10T08:13:39.883Z,68.54
2018-12-10T08:14:20.762Z,68.79
2018-12-10T08:15:01.534Z,68.44
2018-12-10T08:15:42.281Z,68.79
2018-12-10T08:16:23.132Z,68.83
2018-12-10T08:17:03.881Z,68.51
2018-12-10T08:17:44.593Z,68.41
2018-12-10T08:18:25.419Z,69.12
2018-12-10T08:19:06.207Z,69.46
2018-12-10T08:19:46.993Z,69.02
2018-12-10T08:20:27.722Z,69.98
2018-12-10T08:21:08.464Z,69.89
2018-12-10T08:21:49.178Z,69.89
2018-12-10T08:22:29.945Z,70.65
2018-12-10T08:23:10.797Z,70.27
2018-12-10T08:23:51.677Z,70.17
2018-12-10T08:24:32.398Z,70.43
2018-12-10T08:25:13.124Z,71.14
2018-12-10T08:25:53.937Z,71.33
2018-12-10T08:26:34.728Z,71.23
2018-12-10T08:27:15.424Z,70.37
2018-12-10T08:27:56.192Z,70.27
2018-12-10T08:28:36.880Z,70.65
2018-12-10T08:29:17.710Z,70.56
2018-12-10T08:29:58.532Z,70.56
2018-12-10T08:30:39.310Z,70.37
2018-12-10T08:31:20.047Z,70.37
2018-12-10T08:32:00.747Z,71.33
2018-12-10T08:32:41.495Z,71.23
2018-12-10T08:33:22.276Z,71.71
2018-12-10T08:34:03.053Z,72
2018-12-10T08:34:43.852Z,72.09
2018-12-10T08:35:24.668Z,71.52
2018-12-10T08:36:05.443Z,72
2018-12-10T08:36:46.255Z,72
2018-12-10T08:37:27.035Z,71.52
2018-12-10T08:38:07.773Z,71.91
2018-12-10T08:38:48.500Z,72.09
2018-12-10T08:39:29.240Z,71.71
2018-12-10T08:40:10.043Z,71.91
2018-12-10T08:40:50.873Z,71.81
2018-12-10T08:41:31.665Z,72.38
2018-12-10T08:42:12.430Z,72
2018-12-10T08:42:53.157Z,72.48
2018-12-10T08:43:34.031Z,72.58
2018-12-10T08:44:14.783Z,72.67
2018-12-10T08:44:55.491Z,72.29
2018-12-10T08:45:36.208Z,72.19
2018-12-10T08:46:16.981Z,72.09
2018-12-10T08:46:57.790Z,72.38